Latest Weather Observations for Dum In Mirrie

IDD60801

Issued at 7:31 pm CST Thursday 5 May 2016 (issued every 30 minutes, with the page automatically refreshed every 10 minutes)

About weather observations | Map of weather stations | Latest weather observations for NT | Other Formats
Station Details ID: 014277 Name: DUM IN MIRRIE AIRSTRIP Lat: -12.63 Lon: 130.37 Height: 3.5 m
Data from the previous 72 hours. | See also: Recent months at Dum In Mirrie
Date/Time
CST
Temp
°C
App
Temp
°C
Dew
Point
Rel
Hum
%
Delta-T
°C
Wind Press
QNH
hPa
Press
MSL
hPa
Rain
since 9 am
mm
Dir
 
Spd
km/h
Gust
km/h
Spd
kts
Gust
kts
05/07:30pm 29.4 33.4 23.1 69 4.3 NE 7 13 4 7 1008.8 1008.8 0.0
05/07:00pm 29.6 33.6 23.1 68 4.5 NE 7 11 4 6 1008.4 1008.4 0.0
05/06:30pm 29.8 33.3 22.8 66 4.8 NE 9 17 5 9 1008.2 1008.2 0.0
05/06:00pm 30.4 33.4 22.6 63 5.3 NE 11 20 6 11 1008.0 1008.0 0.0
05/05:30pm 30.5 33.2 22.9 64 5.2 NNE 13 24 7 13 1007.9 1007.9 0.0
05/05:00pm 31.5 34.6 23.6 63 5.5 NE 13 20 7 11 1007.9 1007.9 0.0
05/04:30pm 31.6 34.7 24.2 65 5.2 NNE 15 24 8 13 1008.1 1008.1 0.0
05/04:00pm 32.1 35.6 24.2 63 5.5 NNE 13 22 7 12 1008.0 1008.0 0.0
05/03:30pm 32.4 36.7 25.5 67 4.9 N 13 24 7 13 1008.2 1008.2 0.0
05/03:00pm 31.4 34.7 24.5 67 4.8 N 15 20 8 11 1008.5 1008.5 0.0
05/02:30pm 32.6 36.9 24.9 64 5.4 N 11 19 6 10 1008.7 1008.7 0.0
05/02:00pm 33.2 36.9 23.2 55 6.9 NE 9 15 5 8 1009.0 1009.0 0.0
05/01:30pm 33.2 37.0 23.5 56 6.7 ENE 9 15 5 8 1009.4 1009.4 0.0
05/01:00pm 32.2 36.2 23.7 61 5.9 ENE 9 17 5 9 1009.9 1009.9 0.0
05/12:30pm 32.2 36.9 24.3 63 5.5 ENE 7 19 4 10 1010.4 1010.4 0.0
05/12:00pm 31.8 36.2 24.4 65 5.2 ENE 9 17 5 9 1010.9 1010.9 0.0
05/11:30am 31.7 36.2 24.6 66 5.0 ENE 9 15 5 8 1011.4 1011.4 0.0
05/11:00am 31.3 35.7 24.4 66 4.8 ENE 9 20 5 11 1011.9 1011.9 0.0
05/10:30am 30.7 34.1 24.1 68 4.6 E 13 19 7 10 1012.1 1012.1 0.0
05/10:00am 29.9 34.0 24.5 73 3.8 E 11 17 6 9 1012.1 1012.1 0.0
05/09:30am 29.5 34.7 24.8 76 3.3 ESE 6 11 3 6 1012.1 1012.1 0.0
05/09:00am 28.5 32.7 24.1 77 3.0 ESE 9 13 5 7 1011.8 1011.8 35.2
05/08:30am 27.7 32.6 24.3 82 2.4 ESE 6 11 3 6 1011.5 1011.5 35.2
05/08:00am 26.8 31.3 23.9 84 2.0 ESE 7 9 4 5 1011.1 1011.1 35.2
05/07:30am 25.7 30.2 23.7 89 1.4 ESE 6 9 3 5 1011.0 1011.0 35.2
05/07:00am 25.1 29.9 23.5 91 1.1 SE 4 7 2 4 1010.8 1010.8 35.2
05/06:30am 25.1 29.6 23.7 92 1.0 ESE 6 7 3 4 1010.5 1010.5 35.2
05/06:00am 25.6 29.3 23.3 87 1.6 E 9 19 5 10 1010.3 1010.3 35.0
05/05:30am 26.1 30.8 24.0 88 1.4 SE 6 13 3 7 1010.3 1010.3 35.0
05/05:00am 25.9 30.4 23.6 87 1.6 SSE 6 15 3 8 1010.3 1010.3 35.0
05/04:30am 25.8 30.4 23.8 89 1.4 SE 6 13 3 7 1010.4 1010.4 35.0
05/04:00am 25.6 30.1 23.7 89 1.3 SE 6 11 3 6 1010.3 1010.3 35.0
05/03:30am 25.6 29.9 23.7 89 1.3 SE 7 17 4 9 1010.4 1010.4 35.0
05/03:00am 25.8 30.3 24.0 90 1.2 SSE 7 13 4 7 1010.6 1010.6 35.0
05/02:30am 25.5 30.5 23.9 91 1.1 SSE 4 7 2 4 1010.8 1010.8 35.0
05/02:00am 25.4 30.1 24.0 92 1.0 SSE 6 11 3 6 1011.1 1011.1 35.0
05/01:30am 26.1 32.6 25.6 97 0.4 SE 2 4 1 2 1011.0 1011.0 35.0
05/01:00am 26.1 32.9 25.6 97 0.4 CALM 0 2 0 1 1011.1 1011.1 35.0
05/12:30am 26.1 32.8 25.4 96 0.5 CALM 0 0 0 0 1011.1 1011.1 34.8
05/12:00am 26.2 32.8 25.3 95 0.6 CALM 0 0 0 0 1011.4 1011.4 34.8
 
Date/Time
CST
Temp
°C
App
Temp
°C
Dew
Point
Rel
Hum
%
Delta-T
°C
Wind Press
QNH
hPa
Press
MSL
hPa
Rain
since 9 am
mm
Dir
 
Spd
km/h
Gust
km/h
Spd
kts
Gust
kts
04/11:30pm 26.6 33.4 25.6 94 0.7 CALM 0 0 0 0 1011.6 1011.6 34.8
04/11:00pm 27.1 34.0 25.7 92 1.0 CALM 0 0 0 0 1011.9 1011.9 34.8
04/10:30pm 27.3 33.8 25.7 91 1.1 NNW 2 6 1 3 1012.0 1012.0 34.8
04/10:00pm 27.4 33.5 25.6 90 1.3 N 4 7 2 4 1011.9 1011.9 34.8
04/09:30pm 27.3 33.7 26.1 93 0.9 N 4 7 2 4 1011.9 1011.9 34.8
04/09:00pm 26.9 33.6 26.6 98 0.2 NNW 4 7 2 4 1011.8 1011.8 34.8
04/08:30pm 26.3 32.9 25.8 97 0.4 N 2 4 1 2 1011.6 1011.6 34.8
04/08:00pm 25.5 31.0 24.6 95 0.6 N 4 6 2 3 1010.8 1010.8 34.8
04/07:30pm 25.5 32.0 25.0 97 0.3 CALM 0 2 0 1 1010.5 1010.5 34.8
04/07:00pm 24.9 30.0 24.0 95 0.6 NNE 4 6 2 3 1010.1 1010.1 34.8
04/06:30pm 25.0 30.9 24.1 95 0.6 CALM 0 0 0 0 1009.9 1009.9 34.8
04/06:00pm 24.9 30.7 24.0 95 0.6 CALM 0 0 0 0 1009.5 1009.5 34.8
04/05:30pm 24.7 30.5 24.0 96 0.5 CALM 0 2 0 1 1009.4 1009.4 34.8
04/05:00pm 24.3 28.9 23.1 93 0.8 ESE 4 11 2 6 1009.9 1009.9 34.8
04/04:30pm 25.5 26.8 22.4 83 2.1 ENE 19 32 10 17 1009.7 1009.7 32.2
04/04:00pm 27.1 33.0 25.9 93 0.8 NNE 6 9 3 5 1009.2 1009.2 32.2
04/03:30pm 26.1 31.8 25.6 97 0.4 N 6 7 3 4 1009.1 1009.1 32.2
04/03:00pm 25.5 31.1 24.8 96 0.5 N 4 6 2 3 1009.5 1009.5 32.2
04/02:30pm 24.9 27.3 23.7 93 0.8 NNE 17 30 9 16 1009.8 1009.8 30.2
04/02:00pm 25.2 26.8 23.3 89 1.3 ESE 20 33 11 18 1010.0 1010.0 17.8
04/01:50pm 27.5 29.1 21.5 70 4.0 E 15 35 8 19 1009.8 1009.8 0.4
04/01:30pm 32.9 37.0 24.6 61 5.8 N 11 19 6 10 1009.6 1009.6 0.0
04/01:00pm 32.8 36.8 25.6 66 5.1 N 15 24 8 13 1010.0 1010.0 0.0
04/12:30pm 33.6 37.5 24.8 60 6.2 ENE 13 20 7 11 1010.4 1010.4 0.0
04/12:00pm 32.5 35.3 24.3 62 5.7 ENE 17 24 9 13 1010.9 1010.9 0.0
04/11:30am 32.7 36.9 24.7 62 5.6 E 11 22 6 12 1011.5 1011.5 0.0
04/11:00am 31.8 36.1 24.9 67 4.9 E 11 17 6 9 1011.9 1011.9 0.0
04/10:30am 31.0 34.7 24.6 68 4.5 E 13 19 7 10 1012.3 1012.3 0.0
04/10:00am 30.5 34.1 24.4 70 4.3 E 13 19 7 10 1012.3 1012.3 0.0
04/09:30am 30.0 33.7 24.6 73 3.8 E 13 20 7 11 1012.3 1012.3 0.0
04/09:00am 28.9 32.7 24.7 78 2.9 E 13 20 7 11 1011.9 1011.9 0.0
04/08:30am 28.2 32.6 24.4 80 2.6 E 9 13 5 7 1011.9 1011.9 0.0
04/08:00am 27.3 32.2 24.7 86 1.8 ESE 7 13 4 7 1011.8 1011.8 0.0
04/07:30am 26.1 31.5 24.5 91 1.1 SE 4 7 2 4 1011.4 1011.4 0.0
04/07:00am 25.6 30.4 24.2 92 1.0 SE 6 9 3 5 1010.8 1010.8 0.0
04/06:30am 25.6 31.1 24.6 94 0.7 SE 4 6 2 3 1010.5 1010.5 0.0
04/06:00am 25.7 31.2 24.7 94 0.7 SE 4 7 2 4 1010.4 1010.4 0.0
04/05:30am 25.9 31.2 24.9 94 0.7 SE 6 13 3 7 1010.1 1010.1 0.0
04/05:00am 25.5 30.8 24.3 93 0.8 SE 4 6 2 3 1010.2 1010.2 0.0
04/04:30am 25.6 30.9 24.4 93 0.8 SE 4 9 2 5 1010.4 1010.4 0.0
04/04:00am 25.6 31.1 24.6 94 0.7 ESE 4 7 2 4 1010.4 1010.4 0.0
04/03:30am 25.9 31.6 25.0 95 0.6 SSE 4 9 2 5 1010.6 1010.6 0.0
04/03:00am 25.9 31.5 24.9 94 0.7 SSE 4 9 2 5 1010.7 1010.7 0.0
04/02:30am 25.7 31.2 24.7 94 0.7 SE 4 6 2 3 1010.9 1010.9 0.0
04/02:00am 25.6 31.1 24.6 94 0.7 ESE 4 4 2 2 1011.0 1011.0 0.0
04/01:30am 25.7 31.2 24.7 94 0.7 SE 4 7 2 4 1011.3 1011.3 0.0
04/01:00am 25.6 30.9 24.4 93 0.8 SE 4 9 2 5 1011.6 1011.6 0.0
04/12:30am 25.6 31.4 24.6 94 0.7 SE 2 6 1 3 1011.2 1011.2 0.0
04/12:00am 25.7 31.7 24.8 95 0.6 SE 2 6 1 3 1011.4 1011.4 0.0
 
Date/Time
CST
Temp
°C
App
Temp
°C
Dew
Point
Rel
Hum
%
Delta-T
°C
Wind Press
QNH
hPa
Press
MSL
hPa
Rain
since 9 am
mm
Dir
 
Spd
km/h
Gust
km/h
Spd
kts
Gust
kts
03/11:30pm 25.5 31.5 24.3 93 0.8 CALM 0 0 0 0 1011.3 1011.3 0.0
03/11:00pm 25.7 31.6 24.1 91 1.1 CALM 0 0 0 0 1011.8 1011.8 0.0
03/10:30pm 26.4 32.1 25.0 92 1.0 ESE 4 6 2 3 1011.8 1011.8 0.0
03/10:00pm 26.8 32.6 25.2 91 1.1 SE 4 6 2 3 1012.1 1012.1 0.0
03/09:30pm 26.9 32.7 25.1 90 1.3 SSE 4 6 2 3 1012.2 1012.2 0.0
03/09:00pm 26.9 32.5 24.9 89 1.4 SE 4 6 2 3 1012.0 1012.0 0.0
03/08:30pm 27.0 32.7 25.0 89 1.4 SE 4 7 2 4 1011.5 1011.5 0.0
03/08:00pm 27.0 33.1 25.0 89 1.4 ENE 2 2 1 1 1010.9 1010.9 0.0
03/07:30pm 27.1 32.7 24.9 88 1.5 NE 4 6 2 3 1010.3 1010.3 0.0
03/07:00pm 27.0 32.0 24.5 86 1.7 NE 6 11 3 6 1009.6 1009.6 0.0
03/06:30pm 27.3 32.2 24.4 84 2.0 NE 6 11 3 6 1009.4 1009.4 0.0
03/06:00pm 27.8 32.2 24.4 82 2.4 NE 9 15 5 8 1009.1 1009.1 0.0
03/05:30pm 27.3 31.8 24.6 85 1.9 NE 9 19 5 10 1008.7 1008.7 0.0
03/05:00pm 27.4 31.6 24.1 82 2.3 ENE 9 15 5 8 1008.6 1008.6 0.0
03/04:30pm 27.3 30.0 22.9 77 3.0 ENE 13 19 7 10 1009.5 1009.5 0.0
03/04:00pm 27.0 28.1 23.7 82 2.3 NE 24 43 13 23 1009.6 1009.6 0.0
03/03:40pm 28.0 27.7 22.5 72 3.7 NNE 28 54 15 29 1009.2 1009.2 0.0
03/03:30pm 32.0 35.4 25.3 67 4.7 NNE 17 33 9 18 1008.7 1008.7 0.0
03/03:00pm 31.6 34.1 24.5 66 5.0 NNE 19 30 10 16 1008.8 1008.8 0.0
03/02:30pm 32.2 35.3 24.8 65 5.2 N 17 28 9 15 1008.9 1008.9 0.0
03/02:00pm 32.7 36.4 24.5 62 5.8 N 13 24 7 13 1008.9 1008.9 0.0
03/01:30pm 31.6 36.2 24.7 67 4.9 N 9 17 5 9 1009.4 1009.4 0.0
03/01:00pm 32.8 36.4 23.7 58 6.3 ENE 11 19 6 10 1010.2 1010.2 0.0
03/12:30pm 32.4 37.0 24.2 62 5.7 ENE 7 13 4 7 1010.9 1010.9 0.0
03/12:00pm 32.7 36.8 24.5 62 5.8 E 11 17 6 9 1011.1 1011.1 0.0
03/11:30am 32.2 36.6 24.5 64 5.4 E 9 17 5 9 1011.7 1011.7 0.0
03/11:00am 31.1 35.4 24.2 66 4.8 E 9 15 5 8 1012.2 1012.2 0.0
03/10:30am 30.1 34.0 24.3 71 4.0 ESE 11 17 6 9 1012.3 1012.3 0.0
03/10:00am 28.9 33.3 23.8 74 3.5 SE 7 13 4 7 1012.3 1012.3 0.0
03/09:30am 28.2 32.7 23.6 76 3.2 SE 6 9 3 5 1012.3 1012.3 0.0
03/09:00am 27.9 32.0 23.9 79 2.8 ESE 9 15 5 8 1012.0 1012.0 0.0
03/08:30am 27.4 31.6 24.1 82 2.3 E 9 17 5 9 1011.6 1011.6 0.0
03/08:00am 26.4 30.6 23.5 84 2.0 E 7 13 4 7 1011.3 1011.3 0.0
03/07:30am 25.3 29.4 23.2 88 1.4 ESE 7 13 4 7 1011.3 1011.3 0.0
03/07:00am 24.6 28.4 22.7 89 1.3 ESE 7 11 4 6 1011.3 1011.3 0.0
03/06:30am 24.8 28.6 22.7 88 1.4 SE 7 13 4 7 1010.8 1010.8 0.0
03/06:00am 25.1 29.1 22.8 87 1.6 ESE 6 9 3 5 1010.3 1010.3 0.0
03/05:30am 25.4 29.7 23.3 88 1.4 ESE 6 7 3 4 1010.0 1010.0 0.0
03/05:00am 25.6 30.3 23.3 87 1.6 ESE 4 7 2 4 1009.8 1009.8 0.0
03/04:30am 25.7 30.1 23.4 87 1.6 ESE 6 7 3 4 1009.7 1009.7 0.0
03/04:00am 25.9 29.8 23.0 84 2.0 ESE 7 11 4 6 1009.6 1009.6 0.0
03/03:30am 26.1 29.9 22.8 82 2.2 ESE 7 11 4 6 1009.7 1009.7 0.0
03/03:00am 26.3 29.9 22.4 79 2.6 E 7 11 4 6 1010.0 1010.0 0.0
03/02:30am 26.5 30.3 22.8 80 2.5 ESE 7 13 4 7 1010.2 1010.2 0.0
03/02:00am 27.1 32.4 24.9 88 1.5 ESE 6 11 3 6 1010.5 1010.5 0.0
03/01:30am 27.6 32.6 25.4 88 1.5 ESE 9 15 5 8 1011.1 1011.1 0.0
03/01:00am 28.4 34.1 25.6 85 2.0 ESE 6 9 3 5 1011.7 1011.7 0.0
03/12:30am 28.2 33.9 25.6 86 1.8 E 6 9 3 5 1011.9 1011.9 0.0
03/12:00am 28.1 34.0 25.9 88 1.6 ENE 6 9 3 5 1012.1 1012.1 0.0
 
Date/Time
CST
Temp
°C
App
Temp
°C
Dew
Point
Rel
Hum
%
Delta-T
°C
Wind Press
QNH
hPa
Press
MSL
hPa
Rain
since 9 am
mm
Dir
 
Spd
km/h
Gust
km/h
Spd
kts
Gust
kts
02/11:30pm 27.6 34.1 25.6 89 1.4 ENE 2 4 1 2 1012.2 1012.2 0.0
02/11:00pm 27.3 32.9 24.9 87 1.7 NE 4 4 2 2 1012.0 1012.0 0.0
02/10:30pm 27.9 33.9 24.9 84 2.1 ENE 2 4 1 2 1011.8 1011.8 0.0
02/10:00pm 28.4 34.1 25.0 82 2.4 ENE 4 7 2 4 1012.1 1012.1 0.0
02/09:30pm 28.6 33.9 25.0 81 2.5 NE 6 9 3 5 1012.1 1012.1 0.0
02/09:00pm 28.7 34.0 24.9 80 2.7 NE 6 9 3 5 1012.1 1012.1 0.0
02/08:30pm 28.8 34.0 24.8 79 2.8 NE 6 7 3 4 1011.8 1011.8 0.0
02/08:00pm 29.0 34.3 25.0 79 2.8 NE 6 11 3 6 1011.4 1011.4 0.0

Other Formats:

Comma delimited format used in spreadsheet applications
http://www.bom.gov.au/fwo/IDD60801/IDD60801.94116.axf

JavaScript Object Notation format (JSON) in row-major order
http://www.bom.gov.au/fwo/IDD60801/IDD60801.94116.json